sensor_id;sensor_type;location;lat;lon;timestamp;P1;durP1;ratioP1;P2;durP2;ratioP2
75297;SDS011;63896;45.990;18.688;2023-10-08T00:00:25;11.07;;;3.33;;
75297;SDS011;63896;45.990;18.688;2023-10-08T00:03:47;7.28;;;3.45;;
75297;SDS011;63896;45.990;18.688;2023-10-08T00:06:52;8.63;;;3.57;;
75297;SDS011;63896;45.990;18.688;2023-10-08T00:09:55;8.02;;;3.63;;
75297;SDS011;63896;45.990;18.688;2023-10-08T00:12:58;8.10;;;3.45;;
75297;SDS011;63896;45.990;18.688;2023-10-08T00:16:00;7.72;;;2.95;;
75297;SDS011;63896;45.990;18.688;2023-10-08T00:19:03;8.05;;;3.15;;
75297;SDS011;63896;45.990;18.688;2023-10-08T00:22:10;10.73;;;3.60;;
75297;SDS011;63896;45.990;18.688;2023-10-08T00:25:15;9.35;;;3.40;;
75297;SDS011;63896;45.990;18.688;2023-10-08T00:28:18;7.72;;;3.38;;
75297;SDS011;63896;45.990;18.688;2023-10-08T00:31:23;8.18;;;3.58;;
75297;SDS011;63896;45.990;18.688;2023-10-08T00:34:44;8.50;;;3.42;;
75297;SDS011;63896;45.990;18.688;2023-10-08T00:37:47;8.07;;;3.73;;
75297;SDS011;63896;45.990;18.688;2023-10-08T00:40:50;7.90;;;3.30;;
75297;SDS011;63896;45.990;18.688;2023-10-08T00:43:58;6.95;;;3.25;;
75297;SDS011;63896;45.990;18.688;2023-10-08T00:47:04;7.93;;;3.45;;
75297;SDS011;63896;45.990;18.688;2023-10-08T00:50:11;8.30;;;3.47;;
75297;SDS011;63896;45.990;18.688;2023-10-08T00:53:23;6.93;;;3.13;;
75297;SDS011;63896;45.990;18.688;2023-10-08T00:56:26;7.97;;;3.65;;
75297;SDS011;63896;45.990;18.688;2023-10-08T00:59:48;9.18;;;3.13;;
75297;SDS011;63896;45.990;18.688;2023-10-08T01:02:58;7.60;;;3.22;;
75297;SDS011;63896;45.990;18.688;2023-10-08T01:06:04;8.93;;;3.25;;
75297;SDS011;63896;45.990;18.688;2023-10-08T01:09:12;8.93;;;2.90;;
75297;SDS011;63896;45.990;18.688;2023-10-08T01:12:21;9.35;;;3.25;;
75297;SDS011;63896;45.990;18.688;2023-10-08T01:15:29;6.75;;;3.10;;
75297;SDS011;63896;45.990;18.688;2023-10-08T01:18:33;7.95;;;3.58;;
75297;SDS011;63896;45.990;18.688;2023-10-08T01:21:38;8.02;;;3.55;;
75297;SDS011;63896;45.990;18.688;2023-10-08T01:24:42;7.83;;;3.50;;
75297;SDS011;63896;45.990;18.688;2023-10-08T01:27:45;6.72;;;3.53;;
75297;SDS011;63896;45.990;18.688;2023-10-08T01:30:48;7.82;;;3.70;;
75297;SDS011;63896;45.990;18.688;2023-10-08T01:33:56;7.80;;;3.47;;
75297;SDS011;63896;45.990;18.688;2023-10-08T01:36:59;8.32;;;3.55;;
75297;SDS011;63896;45.990;18.688;2023-10-08T01:40:11;8.63;;;3.60;;
75297;SDS011;63896;45.990;18.688;2023-10-08T01:43:13;5.55;;;2.88;;
75297;SDS011;63896;45.990;18.688;2023-10-08T01:46:16;6.43;;;3.30;;
75297;SDS011;63896;45.990;18.688;2023-10-08T01:49:19;9.45;;;3.80;;
75297;SDS011;63896;45.990;18.688;2023-10-08T01:52:24;9.18;;;3.65;;
75297;SDS011;63896;45.990;18.688;2023-10-08T01:55:27;6.40;;;3.07;;
75297;SDS011;63896;45.990;18.688;2023-10-08T01:58:32;8.50;;;3.45;;
75297;SDS011;63896;45.990;18.688;2023-10-08T02:01:38;9.02;;;3.72;;
75297;SDS011;63896;45.990;18.688;2023-10-08T02:04:41;8.00;;;3.35;;
75297;SDS011;63896;45.990;18.688;2023-10-08T02:07:47;8.68;;;3.80;;
75297;SDS011;63896;45.990;18.688;2023-10-08T02:10:50;6.50;;;3.17;;
75297;SDS011;63896;45.990;18.688;2023-10-08T02:13:53;7.03;;;3.60;;
75297;SDS011;63896;45.990;18.688;2023-10-08T02:16:56;8.15;;;3.75;;
75297;SDS011;63896;45.990;18.688;2023-10-08T02:19:59;6.80;;;3.30;;
75297;SDS011;63896;45.990;18.688;2023-10-08T02:23:02;9.40;;;3.58;;
75297;SDS011;63896;45.990;18.688;2023-10-08T02:26:07;7.00;;;3.17;;
75297;SDS011;63896;45.990;18.688;2023-10-08T02:29:10;6.43;;;3.33;;
75297;SDS011;63896;45.990;18.688;2023-10-08T02:32:13;6.22;;;3.15;;
75297;SDS011;63896;45.990;18.688;2023-10-08T02:35:16;10.10;;;4.10;;
75297;SDS011;63896;45.990;18.688;2023-10-08T02:38:19;9.40;;;3.60;;
75297;SDS011;63896;45.990;18.688;2023-10-08T02:41:24;7.63;;;3.53;;
75297;SDS011;63896;45.990;18.688;2023-10-08T02:44:27;9.68;;;3.65;;
75297;SDS011;63896;45.990;18.688;2023-10-08T02:47:30;8.07;;;3.60;;
75297;SDS011;63896;45.990;18.688;2023-10-08T02:50:34;7.65;;;3.47;;
75297;SDS011;63896;45.990;18.688;2023-10-08T02:53:37;9.02;;;3.60;;
75297;SDS011;63896;45.990;18.688;2023-10-08T02:56:47;6.73;;;3.60;;
75297;SDS011;63896;45.990;18.688;2023-10-08T02:59:54;8.52;;;3.50;;
75297;SDS011;63896;45.990;18.688;2023-10-08T03:02:58;8.65;;;3.70;;
75297;SDS011;63896;45.990;18.688;2023-10-08T03:06:04;7.03;;;3.42;;
75297;SDS011;63896;45.990;18.688;2023-10-08T03:09:06;10.57;;;3.92;;
75297;SDS011;63896;45.990;18.688;2023-10-08T03:12:12;8.37;;;3.20;;
75297;SDS011;63896;45.990;18.688;2023-10-08T03:15:15;11.65;;;3.78;;
75297;SDS011;63896;45.990;18.688;2023-10-08T03:18:31;7.32;;;3.45;;
75297;SDS011;63896;45.990;18.688;2023-10-08T03:21:46;10.80;;;3.60;;
75297;SDS011;63896;45.990;18.688;2023-10-08T03:24:58;8.60;;;3.72;;
75297;SDS011;63896;45.990;18.688;2023-10-08T03:28:16;6.60;;;3.40;;
75297;SDS011;63896;45.990;18.688;2023-10-08T03:31:20;6.70;;;3.13;;
75297;SDS011;63896;45.990;18.688;2023-10-08T03:34:34;7.75;;;3.65;;
75297;SDS011;63896;45.990;18.688;2023-10-08T03:37:36;7.75;;;3.80;;
75297;SDS011;63896;45.990;18.688;2023-10-08T03:40:48;5.90;;;3.25;;
75297;SDS011;63896;45.990;18.688;2023-10-08T03:43:52;6.57;;;3.50;;
75297;SDS011;63896;45.990;18.688;2023-10-08T03:46:58;7.47;;;3.30;;
75297;SDS011;63896;45.990;18.688;2023-10-08T03:50:01;8.90;;;3.90;;
75297;SDS011;63896;45.990;18.688;2023-10-08T03:53:08;7.82;;;3.38;;
75297;SDS011;63896;45.990;18.688;2023-10-08T03:56:14;6.72;;;3.72;;
75297;SDS011;63896;45.990;18.688;2023-10-08T03:59:19;6.47;;;3.27;;
75297;SDS011;63896;45.990;18.688;2023-10-08T04:02:31;9.02;;;3.92;;
75297;SDS011;63896;45.990;18.688;2023-10-08T04:05:42;10.93;;;3.83;;
75297;SDS011;63896;45.990;18.688;2023-10-08T04:09:17;11.52;;;3.75;;
75297;SDS011;63896;45.990;18.688;2023-10-08T04:12:23;7.18;;;3.20;;
75297;SDS011;63896;45.990;18.688;2023-10-08T04:15:29;8.07;;;3.70;;
75297;SDS011;63896;45.990;18.688;2023-10-08T04:18:31;7.82;;;3.67;;
75297;SDS011;63896;45.990;18.688;2023-10-08T04:21:42;7.95;;;3.83;;
75297;SDS011;63896;45.990;18.688;2023-10-08T04:24:45;8.35;;;3.85;;
75297;SDS011;63896;45.990;18.688;2023-10-08T04:27:48;7.35;;;3.25;;
75297;SDS011;63896;45.990;18.688;2023-10-08T04:30:52;8.17;;;3.63;;
75297;SDS011;63896;45.990;18.688;2023-10-08T04:33:55;7.28;;;3.80;;
75297;SDS011;63896;45.990;18.688;2023-10-08T04:37:03;8.30;;;3.72;;
75297;SDS011;63896;45.990;18.688;2023-10-08T04:40:14;7.65;;;4.00;;
75297;SDS011;63896;45.990;18.688;2023-10-08T04:43:19;12.05;;;3.88;;
75297;SDS011;63896;45.990;18.688;2023-10-08T04:46:30;9.93;;;3.93;;
75297;SDS011;63896;45.990;18.688;2023-10-08T04:49:49;9.55;;;3.95;;
75297;SDS011;63896;45.990;18.688;2023-10-08T04:52:55;7.18;;;3.95;;
75297;SDS011;63896;45.990;18.688;2023-10-08T04:56:01;8.32;;;4.40;;
75297;SDS011;63896;45.990;18.688;2023-10-08T04:59:08;7.88;;;4.20;;
75297;SDS011;63896;45.990;18.688;2023-10-08T05:02:14;9.07;;;4.23;;
75297;SDS011;63896;45.990;18.688;2023-10-08T05:05:43;6.68;;;3.58;;
75297;SDS011;63896;45.990;18.688;2023-10-08T05:09:10;7.43;;;3.90;;
75297;SDS011;63896;45.990;18.688;2023-10-08T05:12:15;8.15;;;3.63;;
75297;SDS011;63896;45.990;18.688;2023-10-08T05:15:36;8.45;;;4.07;;
75297;SDS011;63896;45.990;18.688;2023-10-08T05:18:44;8.70;;;3.63;;
75297;SDS011;63896;45.990;18.688;2023-10-08T05:22:05;9.90;;;3.92;;
75297;SDS011;63896;45.990;18.688;2023-10-08T05:25:20;8.85;;;4.13;;
75297;SDS011;63896;45.990;18.688;2023-10-08T05:28:24;9.68;;;3.90;;
75297;SDS011;63896;45.990;18.688;2023-10-08T05:31:28;8.05;;;4.15;;
75297;SDS011;63896;45.990;18.688;2023-10-08T05:34:55;7.77;;;4.00;;
75297;SDS011;63896;45.990;18.688;2023-10-08T05:38:21;8.65;;;3.75;;
75297;SDS011;63896;45.990;18.688;2023-10-08T05:41:29;7.05;;;3.83;;
75297;SDS011;63896;45.990;18.688;2023-10-08T05:44:42;10.90;;;4.15;;
75297;SDS011;63896;45.990;18.688;2023-10-08T05:48:09;8.82;;;3.83;;
75297;SDS011;63896;45.990;18.688;2023-10-08T05:51:30;8.77;;;4.00;;
75297;SDS011;63896;45.990;18.688;2023-10-08T05:54:51;8.65;;;4.10;;
75297;SDS011;63896;45.990;18.688;2023-10-08T05:58:18;8.13;;;4.00;;
75297;SDS011;63896;45.990;18.688;2023-10-08T06:01:20;7.85;;;4.10;;
75297;SDS011;63896;45.990;18.688;2023-10-08T06:04:42;9.82;;;4.20;;
75297;SDS011;63896;45.990;18.688;2023-10-08T06:07:55;7.93;;;3.87;;
75297;SDS011;63896;45.990;18.688;2023-10-08T06:11:12;9.75;;;3.70;;
75297;SDS011;63896;45.990;18.688;2023-10-08T06:14:29;6.30;;;3.38;;
75297;SDS011;63896;45.990;18.688;2023-10-08T06:17:51;10.60;;;3.35;;
75297;SDS011;63896;45.990;18.688;2023-10-08T06:21:07;9.57;;;3.50;;
75297;SDS011;63896;45.990;18.688;2023-10-08T06:24:14;7.90;;;3.60;;
75297;SDS011;63896;45.990;18.688;2023-10-08T06:27:19;8.82;;;3.88;;
75297;SDS011;63896;45.990;18.688;2023-10-08T06:30:22;7.97;;;3.33;;
75297;SDS011;63896;45.990;18.688;2023-10-08T06:33:27;9.77;;;3.45;;
75297;SDS011;63896;45.990;18.688;2023-10-08T06:36:36;7.75;;;3.40;;
75297;SDS011;63896;45.990;18.688;2023-10-08T06:39:39;5.87;;;2.93;;
75297;SDS011;63896;45.990;18.688;2023-10-08T06:42:51;7.18;;;2.92;;
75297;SDS011;63896;45.990;18.688;2023-10-08T06:45:54;5.85;;;2.78;;
75297;SDS011;63896;45.990;18.688;2023-10-08T06:49:03;8.95;;;3.03;;
75297;SDS011;63896;45.990;18.688;2023-10-08T06:52:12;9.43;;;3.75;;
75297;SDS011;63896;45.990;18.688;2023-10-08T06:55:16;5.80;;;3.10;;
75297;SDS011;63896;45.990;18.688;2023-10-08T06:58:20;8.65;;;3.30;;
75297;SDS011;63896;45.990;18.688;2023-10-08T07:01:23;8.88;;;3.30;;
75297;SDS011;63896;45.990;18.688;2023-10-08T07:04:41;8.52;;;3.20;;
75297;SDS011;63896;45.990;18.688;2023-10-08T07:07:46;8.85;;;3.55;;
75297;SDS011;63896;45.990;18.688;2023-10-08T07:10:49;7.47;;;3.30;;
75297;SDS011;63896;45.990;18.688;2023-10-08T07:13:53;6.80;;;3.00;;
75297;SDS011;63896;45.990;18.688;2023-10-08T07:16:58;6.82;;;3.22;;
75297;SDS011;63896;45.990;18.688;2023-10-08T07:20:03;5.57;;;3.38;;
75297;SDS011;63896;45.990;18.688;2023-10-08T07:23:12;5.88;;;3.13;;
75297;SDS011;63896;45.990;18.688;2023-10-08T07:26:22;7.97;;;2.97;;
75297;SDS011;63896;45.990;18.688;2023-10-08T07:29:28;6.28;;;3.22;;
75297;SDS011;63896;45.990;18.688;2023-10-08T07:32:31;6.57;;;3.00;;
75297;SDS011;63896;45.990;18.688;2023-10-08T07:35:37;10.60;;;3.08;;
75297;SDS011;63896;45.990;18.688;2023-10-08T07:38:41;6.72;;;2.97;;
75297;SDS011;63896;45.990;18.688;2023-10-08T07:41:47;7.40;;;3.10;;
75297;SDS011;63896;45.990;18.688;2023-10-08T07:44:50;9.45;;;3.47;;
75297;SDS011;63896;45.990;18.688;2023-10-08T07:47:56;9.10;;;3.47;;
75297;SDS011;63896;45.990;18.688;2023-10-08T07:51:00;5.28;;;2.97;;
75297;SDS011;63896;45.990;18.688;2023-10-08T07:54:04;10.05;;;3.75;;
75297;SDS011;63896;45.990;18.688;2023-10-08T07:57:12;9.97;;;3.30;;
75297;SDS011;63896;45.990;18.688;2023-10-08T08:00:19;6.78;;;3.25;;
75297;SDS011;63896;45.990;18.688;2023-10-08T08:03:28;7.32;;;3.55;;
75297;SDS011;63896;45.990;18.688;2023-10-08T08:06:30;11.90;;;3.33;;
75297;SDS011;63896;45.990;18.688;2023-10-08T08:09:36;9.13;;;3.90;;
75297;SDS011;63896;45.990;18.688;2023-10-08T08:12:40;13.73;;;3.57;;
75297;SDS011;63896;45.990;18.688;2023-10-08T08:15:43;9.00;;;3.22;;
75297;SDS011;63896;45.990;18.688;2023-10-08T08:18:54;5.72;;;3.35;;
75297;SDS011;63896;45.990;18.688;2023-10-08T08:22:01;6.88;;;3.65;;
75297;SDS011;63896;45.990;18.688;2023-10-08T08:25:05;9.57;;;3.20;;
75297;SDS011;63896;45.990;18.688;2023-10-08T08:28:18;8.63;;;2.60;;
75297;SDS011;63896;45.990;18.688;2023-10-08T08:31:28;7.45;;;3.10;;
75297;SDS011;63896;45.990;18.688;2023-10-08T08:34:34;9.57;;;4.40;;
75297;SDS011;63896;45.990;18.688;2023-10-08T08:37:38;13.93;;;3.60;;
75297;SDS011;63896;45.990;18.688;2023-10-08T08:40:41;9.73;;;3.53;;
75297;SDS011;63896;45.990;18.688;2023-10-08T08:43:48;10.93;;;4.00;;
75297;SDS011;63896;45.990;18.688;2023-10-08T08:47:00;7.03;;;3.15;;
75297;SDS011;63896;45.990;18.688;2023-10-08T08:50:07;9.45;;;3.30;;
75297;SDS011;63896;45.990;18.688;2023-10-08T08:53:12;7.97;;;3.33;;
75297;SDS011;63896;45.990;18.688;2023-10-08T08:56:15;11.52;;;3.20;;
75297;SDS011;63896;45.990;18.688;2023-10-08T08:59:18;6.47;;;2.90;;
75297;SDS011;63896;45.990;18.688;2023-10-08T09:02:22;8.50;;;3.00;;
75297;SDS011;63896;45.990;18.688;2023-10-08T09:05:25;8.50;;;2.72;;
75297;SDS011;63896;45.990;18.688;2023-10-08T09:08:33;9.85;;;3.08;;
75297;SDS011;63896;45.990;18.688;2023-10-08T09:11:42;9.32;;;3.05;;
75297;SDS011;63896;45.990;18.688;2023-10-08T09:14:45;9.87;;;3.30;;
75297;SDS011;63896;45.990;18.688;2023-10-08T09:17:48;10.75;;;2.92;;
75297;SDS011;63896;45.990;18.688;2023-10-08T09:20:51;10.95;;;3.25;;
75297;SDS011;63896;45.990;18.688;2023-10-08T09:23:54;10.73;;;3.05;;
75297;SDS011;63896;45.990;18.688;2023-10-08T09:26:57;12.63;;;3.28;;
75297;SDS011;63896;45.990;18.688;2023-10-08T09:30:03;12.93;;;3.27;;
75297;SDS011;63896;45.990;18.688;2023-10-08T09:33:11;8.55;;;3.00;;
75297;SDS011;63896;45.990;18.688;2023-10-08T09:36:15;9.60;;;3.10;;
75297;SDS011;63896;45.990;18.688;2023-10-08T09:39:20;13.05;;;3.30;;
75297;SDS011;63896;45.990;18.688;2023-10-08T09:42:27;9.43;;;3.40;;
75297;SDS011;63896;45.990;18.688;2023-10-08T09:45:32;11.70;;;3.03;;
75297;SDS011;63896;45.990;18.688;2023-10-08T09:48:37;9.55;;;3.20;;
75297;SDS011;63896;45.990;18.688;2023-10-08T09:51:43;8.32;;;2.90;;
75297;SDS011;63896;45.990;18.688;2023-10-08T09:54:59;7.68;;;2.90;;
75297;SDS011;63896;45.990;18.688;2023-10-08T09:58:05;7.28;;;3.13;;
75297;SDS011;63896;45.990;18.688;2023-10-08T10:01:09;7.83;;;3.30;;
75297;SDS011;63896;45.990;18.688;2023-10-08T10:04:21;11.60;;;2.97;;
75297;SDS011;63896;45.990;18.688;2023-10-08T10:07:27;10.77;;;3.05;;
75297;SDS011;63896;45.990;18.688;2023-10-08T10:10:31;12.20;;;3.00;;
75297;SDS011;63896;45.990;18.688;2023-10-08T10:13:49;11.00;;;3.17;;
75297;SDS011;63896;45.990;18.688;2023-10-08T10:20:51;13.13;;;2.90;;
75297;SDS011;63896;45.990;18.688;2023-10-08T10:24:03;13.10;;;2.78;;
75297;SDS011;63896;45.990;18.688;2023-10-08T10:27:14;15.30;;;2.90;;
75297;SDS011;63896;45.990;18.688;2023-10-08T10:30:18;11.60;;;2.45;;
75297;SDS011;63896;45.990;18.688;2023-10-08T10:33:31;10.27;;;2.47;;
75297;SDS011;63896;45.990;18.688;2023-10-08T10:36:36;10.15;;;2.30;;
75297;SDS011;63896;45.990;18.688;2023-10-08T10:39:41;19.40;;;2.55;;
75297;SDS011;63896;45.990;18.688;2023-10-08T10:42:47;14.73;;;2.45;;
75297;SDS011;63896;45.990;18.688;2023-10-08T10:45:55;6.65;;;1.88;;
75297;SDS011;63896;45.990;18.688;2023-10-08T10:48:59;18.27;;;2.60;;
75297;SDS011;63896;45.990;18.688;2023-10-08T10:52:24;11.93;;;2.30;;
75297;SDS011;63896;45.990;18.688;2023-10-08T10:55:54;16.38;;;2.60;;
75297;SDS011;63896;45.990;18.688;2023-10-08T10:59:12;10.30;;;2.60;;
75297;SDS011;63896;45.990;18.688;2023-10-08T11:02:21;9.70;;;2.05;;
75297;SDS011;63896;45.990;18.688;2023-10-08T11:05:33;8.67;;;2.10;;
75297;SDS011;63896;45.990;18.688;2023-10-08T11:08:40;10.20;;;2.20;;
75297;SDS011;63896;45.990;18.688;2023-10-08T11:11:48;5.93;;;1.80;;
75297;SDS011;63896;45.990;18.688;2023-10-08T11:14:57;6.68;;;1.70;;
75297;SDS011;63896;45.990;18.688;2023-10-08T11:18:00;10.40;;;2.22;;
75297;SDS011;63896;45.990;18.688;2023-10-08T11:21:08;11.27;;;1.80;;
75297;SDS011;63896;45.990;18.688;2023-10-08T11:24:31;15.52;;;1.60;;
75297;SDS011;63896;45.990;18.688;2023-10-08T11:27:36;13.10;;;1.90;;
75297;SDS011;63896;45.990;18.688;2023-10-08T11:30:40;9.65;;;2.22;;
75297;SDS011;63896;45.990;18.688;2023-10-08T11:33:45;7.15;;;2.03;;
75297;SDS011;63896;45.990;18.688;2023-10-08T11:36:57;12.67;;;2.13;;
75297;SDS011;63896;45.990;18.688;2023-10-08T11:40:00;51.40;;;2.70;;
75297;SDS011;63896;45.990;18.688;2023-10-08T11:43:19;14.40;;;2.10;;
75297;SDS011;63896;45.990;18.688;2023-10-08T11:49:31;12.45;;;2.30;;
75297;SDS011;63896;45.990;18.688;2023-10-08T11:52:38;10.17;;;2.17;;
75297;SDS011;63896;45.990;18.688;2023-10-08T11:55:44;20.50;;;2.17;;
75297;SDS011;63896;45.990;18.688;2023-10-08T11:58:50;10.82;;;2.10;;
75297;SDS011;63896;45.990;18.688;2023-10-08T12:01:54;16.23;;;2.15;;
75297;SDS011;63896;45.990;18.688;2023-10-08T12:04:58;11.20;;;2.17;;
75297;SDS011;63896;45.990;18.688;2023-10-08T12:08:01;11.57;;;1.90;;
75297;SDS011;63896;45.990;18.688;2023-10-08T12:11:04;14.65;;;2.10;;
75297;SDS011;63896;45.990;18.688;2023-10-08T12:14:14;11.77;;;2.30;;
75297;SDS011;63896;45.990;18.688;2023-10-08T12:17:17;8.63;;;2.05;;
75297;SDS011;63896;45.990;18.688;2023-10-08T12:20:20;12.13;;;1.95;;
75297;SDS011;63896;45.990;18.688;2023-10-08T12:23:26;15.33;;;2.47;;
75297;SDS011;63896;45.990;18.688;2023-10-08T12:26:28;15.30;;;2.00;;
75297;SDS011;63896;45.990;18.688;2023-10-08T12:29:33;19.90;;;2.75;;
75297;SDS011;63896;45.990;18.688;2023-10-08T12:32:37;12.18;;;2.08;;
75297;SDS011;63896;45.990;18.688;2023-10-08T12:35:44;19.23;;;2.10;;
75297;SDS011;63896;45.990;18.688;2023-10-08T12:38:50;14.97;;;2.00;;
75297;SDS011;63896;45.990;18.688;2023-10-08T12:42:00;14.05;;;2.10;;
75297;SDS011;63896;45.990;18.688;2023-10-08T12:45:07;11.30;;;1.92;;
75297;SDS011;63896;45.990;18.688;2023-10-08T12:48:14;12.52;;;2.00;;
75297;SDS011;63896;45.990;18.688;2023-10-08T12:51:18;11.30;;;2.00;;
75297;SDS011;63896;45.990;18.688;2023-10-08T12:54:26;9.40;;;2.03;;
75297;SDS011;63896;45.990;18.688;2023-10-08T12:57:35;10.07;;;1.85;;
75297;SDS011;63896;45.990;18.688;2023-10-08T13:00:40;14.23;;;2.15;;
75297;SDS011;63896;45.990;18.688;2023-10-08T13:03:46;8.63;;;1.70;;
75297;SDS011;63896;45.990;18.688;2023-10-08T13:06:53;12.25;;;1.85;;
75297;SDS011;63896;45.990;18.688;2023-10-08T13:09:59;11.03;;;1.43;;
75297;SDS011;63896;45.990;18.688;2023-10-08T13:13:02;13.57;;;1.95;;
75297;SDS011;63896;45.990;18.688;2023-10-08T13:16:05;15.43;;;1.90;;
75297;SDS011;63896;45.990;18.688;2023-10-08T13:19:10;14.10;;;1.90;;
75297;SDS011;63896;45.990;18.688;2023-10-08T13:22:13;12.48;;;2.40;;
75297;SDS011;63896;45.990;18.688;2023-10-08T13:25:22;9.70;;;1.80;;
75297;SDS011;63896;45.990;18.688;2023-10-08T13:28:25;11.00;;;1.85;;
75297;SDS011;63896;45.990;18.688;2023-10-08T13:31:31;9.85;;;2.17;;
75297;SDS011;63896;45.990;18.688;2023-10-08T13:34:39;10.43;;;1.88;;
75297;SDS011;63896;45.990;18.688;2023-10-08T13:37:42;11.68;;;1.40;;
75297;SDS011;63896;45.990;18.688;2023-10-08T13:40:48;22.37;;;1.90;;
75297;SDS011;63896;45.990;18.688;2023-10-08T13:44:06;10.40;;;0.88;;
75297;SDS011;63896;45.990;18.688;2023-10-08T13:47:08;17.05;;;1.48;;
75297;SDS011;63896;45.990;18.688;2023-10-08T13:50:17;10.05;;;1.20;;
75297;SDS011;63896;45.990;18.688;2023-10-08T13:53:20;11.77;;;1.52;;
75297;SDS011;63896;45.990;18.688;2023-10-08T13:56:23;5.60;;;1.27;;
75297;SDS011;63896;45.990;18.688;2023-10-08T13:59:33;9.00;;;0.85;;
75297;SDS011;63896;45.990;18.688;2023-10-08T14:02:37;9.93;;;1.02;;
75297;SDS011;63896;45.990;18.688;2023-10-08T14:05:41;7.80;;;0.80;;
75297;SDS011;63896;45.990;18.688;2023-10-08T14:08:44;7.75;;;0.98;;
75297;SDS011;63896;45.990;18.688;2023-10-08T14:11:54;8.23;;;1.17;;
75297;SDS011;63896;45.990;18.688;2023-10-08T14:14:58;7.32;;;1.38;;
75297;SDS011;63896;45.990;18.688;2023-10-08T14:18:01;3.05;;;0.60;;
75297;SDS011;63896;45.990;18.688;2023-10-08T14:21:08;4.82;;;0.90;;
75297;SDS011;63896;45.990;18.688;2023-10-08T14:24:12;5.18;;;0.90;;
75297;SDS011;63896;45.990;18.688;2023-10-08T14:27:18;2.30;;;0.20;;
75297;SDS011;63896;45.990;18.688;2023-10-08T14:30:27;5.35;;;0.30;;
75297;SDS011;63896;45.990;18.688;2023-10-08T14:33:32;8.05;;;0.60;;
75297;SDS011;63896;45.990;18.688;2023-10-08T14:36:44;4.97;;;0.35;;
75297;SDS011;63896;45.990;18.688;2023-10-08T14:40:07;4.38;;;0.55;;
75297;SDS011;63896;45.990;18.688;2023-10-08T14:43:29;5.40;;;0.17;;
75297;SDS011;63896;45.990;18.688;2023-10-08T14:46:40;5.80;;;0.20;;
75297;SDS011;63896;45.990;18.688;2023-10-08T14:49:43;3.72;;;0.28;;
75297;SDS011;63896;45.990;18.688;2023-10-08T14:52:48;1.75;;;0.00;;
75297;SDS011;63896;45.990;18.688;2023-10-08T14:55:51;2.00;;;0.10;;
75297;SDS011;63896;45.990;18.688;2023-10-08T14:58:54;2.93;;;0.10;;
75297;SDS011;63896;45.990;18.688;2023-10-08T15:01:57;5.68;;;0.15;;
75297;SDS011;63896;45.990;18.688;2023-10-08T15:05:00;4.10;;;0.30;;
75297;SDS011;63896;45.990;18.688;2023-10-08T15:08:03;3.13;;;0.45;;
75297;SDS011;63896;45.990;18.688;2023-10-08T15:11:12;3.35;;;0.40;;
75297;SDS011;63896;45.990;18.688;2023-10-08T15:14:15;2.70;;;0.23;;
75297;SDS011;63896;45.990;18.688;2023-10-08T15:17:18;2.75;;;0.20;;
75297;SDS011;63896;45.990;18.688;2023-10-08T15:20:21;5.30;;;0.20;;
75297;SDS011;63896;45.990;18.688;2023-10-08T15:23:26;1.20;;;0.00;;
75297;SDS011;63896;45.990;18.688;2023-10-08T15:26:29;0.47;;;0.00;;
75297;SDS011;63896;45.990;18.688;2023-10-08T15:29:32;0.53;;;0.00;;
75297;SDS011;63896;45.990;18.688;2023-10-08T15:32:36;1.85;;;0.10;;
75297;SDS011;63896;45.990;18.688;2023-10-08T15:35:39;1.33;;;0.08;;
75297;SDS011;63896;45.990;18.688;2023-10-08T15:38:43;6.30;;;0.10;;
75297;SDS011;63896;45.990;18.688;2023-10-08T15:41:46;2.28;;;0.00;;
75297;SDS011;63896;45.990;18.688;2023-10-08T15:44:49;1.87;;;0.00;;
75297;SDS011;63896;45.990;18.688;2023-10-08T15:47:52;3.05;;;0.15;;
75297;SDS011;63896;45.990;18.688;2023-10-08T15:50:56;0.17;;;0.00;;
75297;SDS011;63896;45.990;18.688;2023-10-08T15:53:58;1.38;;;0.05;;
75297;SDS011;63896;45.990;18.688;2023-10-08T15:57:03;2.75;;;0.00;;
75297;SDS011;63896;45.990;18.688;2023-10-08T16:00:07;2.00;;;0.10;;
75297;SDS011;63896;45.990;18.688;2023-10-08T16:03:10;3.03;;;0.20;;
75297;SDS011;63896;45.990;18.688;2023-10-08T16:06:14;1.85;;;0.00;;
75297;SDS011;63896;45.990;18.688;2023-10-08T16:09:17;0.50;;;0.00;;
75297;SDS011;63896;45.990;18.688;2023-10-08T16:12:24;0.95;;;0.10;;
75297;SDS011;63896;45.990;18.688;2023-10-08T16:15:27;3.40;;;0.00;;
75297;SDS011;63896;45.990;18.688;2023-10-08T16:18:30;1.95;;;0.00;;
75297;SDS011;63896;45.990;18.688;2023-10-08T16:21:33;1.38;;;0.10;;
75297;SDS011;63896;45.990;18.688;2023-10-08T16:24:36;3.95;;;0.08;;
75297;SDS011;63896;45.990;18.688;2023-10-08T16:27:39;0.88;;;0.03;;
75297;SDS011;63896;45.990;18.688;2023-10-08T16:30:46;0.90;;;0.10;;
75297;SDS011;63896;45.990;18.688;2023-10-08T16:33:53;5.03;;;0.10;;
75297;SDS011;63896;45.990;18.688;2023-10-08T16:36:57;2.70;;;0.00;;
75297;SDS011;63896;45.990;18.688;2023-10-08T16:40:00;2.58;;;0.00;;
75297;SDS011;63896;45.990;18.688;2023-10-08T16:43:03;3.33;;;0.20;;
75297;SDS011;63896;45.990;18.688;2023-10-08T16:46:06;2.10;;;0.00;;
75297;SDS011;63896;45.990;18.688;2023-10-08T16:49:09;1.60;;;0.20;;
75297;SDS011;63896;45.990;18.688;2023-10-08T16:52:13;1.42;;;0.15;;
75297;SDS011;63896;45.990;18.688;2023-10-08T16:55:16;0.28;;;0.03;;
75297;SDS011;63896;45.990;18.688;2023-10-08T16:58:19;0.30;;;0.00;;
75297;SDS011;63896;45.990;18.688;2023-10-08T17:01:22;1.73;;;0.00;;
75297;SDS011;63896;45.990;18.688;2023-10-08T17:04:25;2.75;;;0.00;;
75297;SDS011;63896;45.990;18.688;2023-10-08T17:07:28;2.35;;;0.10;;
75297;SDS011;63896;45.990;18.688;2023-10-08T17:10:31;2.15;;;0.00;;
75297;SDS011;63896;45.990;18.688;2023-10-08T17:13:34;1.17;;;0.13;;
75297;SDS011;63896;45.990;18.688;2023-10-08T17:16:37;1.77;;;0.57;;
75297;SDS011;63896;45.990;18.688;2023-10-08T17:19:40;2.63;;;0.30;;
75297;SDS011;63896;45.990;18.688;2023-10-08T17:22:45;1.05;;;0.10;;
75297;SDS011;63896;45.990;18.688;2023-10-08T17:25:48;0.85;;;0.10;;
75297;SDS011;63896;45.990;18.688;2023-10-08T17:28:51;4.50;;;0.20;;
75297;SDS011;63896;45.990;18.688;2023-10-08T17:31:54;1.33;;;0.03;;
75297;SDS011;63896;45.990;18.688;2023-10-08T17:34:59;0.90;;;0.10;;
75297;SDS011;63896;45.990;18.688;2023-10-08T17:38:02;1.50;;;0.00;;
75297;SDS011;63896;45.990;18.688;2023-10-08T17:41:07;0.50;;;0.00;;
75297;SDS011;63896;45.990;18.688;2023-10-08T17:44:12;6.40;;;0.38;;
75297;SDS011;63896;45.990;18.688;2023-10-08T17:47:16;0.33;;;0.03;;
75297;SDS011;63896;45.990;18.688;2023-10-08T17:50:19;0.35;;;0.03;;
75297;SDS011;63896;45.990;18.688;2023-10-08T17:53:25;2.15;;;0.32;;
75297;SDS011;63896;45.990;18.688;2023-10-08T17:56:28;2.03;;;0.20;;
75297;SDS011;63896;45.990;18.688;2023-10-08T17:59:31;1.75;;;0.17;;
75297;SDS011;63896;45.990;18.688;2023-10-08T18:02:34;4.40;;;0.20;;
75297;SDS011;63896;45.990;18.688;2023-10-08T18:05:38;2.75;;;0.10;;
75297;SDS011;63896;45.990;18.688;2023-10-08T18:08:42;1.80;;;0.30;;
75297;SDS011;63896;45.990;18.688;2023-10-08T18:11:46;0.82;;;0.10;;
75297;SDS011;63896;45.990;18.688;2023-10-08T18:14:51;3.22;;;0.32;;
75297;SDS011;63896;45.990;18.688;2023-10-08T18:17:54;1.70;;;0.20;;
75297;SDS011;63896;45.990;18.688;2023-10-08T18:20:57;1.45;;;0.30;;
75297;SDS011;63896;45.990;18.688;2023-10-08T18:24:00;1.65;;;0.30;;
75297;SDS011;63896;45.990;18.688;2023-10-08T18:27:04;1.63;;;0.47;;
75297;SDS011;63896;45.990;18.688;2023-10-08T18:30:11;4.13;;;0.40;;